Aviation Digital Data Service (ADDS)

Output produced by METARs form (1516 UTC 27 February 2015)
found at http://aviationweather.gov/adds/metars/
 
KORH 271133Z 2712/2812 32005KT P6SM SCT080 
     FM271500 32006KT P6SM FEW250